Madrid, New Mexico
Current Conditions -  °F | °C
As of 5:53 AM on Monday 22 Dec 2014 (Local Time) from KSAF Reporting Station
Few Clouds Few Clouds  
Wind Chill: 32°   Ceiling: Unl
Heat Index: 38°   Visibility: 10mi
Dew Point: 28°   Wind: 8mph
Humidity: 68%   Direction: 30°NNE
Pressure: 29.86"   Gusts: NA
Location:  35.4436°N, 106.089°W
Report Text: KSAF 221253Z AUTO 03007KT 10SM FEW060 03/M02 A2986 RMK AO2 PK WND 26026/1204 SLP088 T00331022
Loading
Personal Weather Stations






























Interactive Weather Map New forecast layout! Learn more

10-Day Weather Forecast

Advertisements
Track Severe Weather on mobile